Annapolis, MO

6:50 PM CDT on September 02, 2014 (GMT -0500)
TurtleCreekFarm | Change Station
CLOSE
Current Station
Personal Weather Station
Location: Bismarck, MO
Elevation: 1040 ft
Nearby Weather Stations

Elev 1040 ft 37.77 °N, 90.58 °W | Updated 4 minutes ago

Partly Cloudy
Partly Cloudy
75.4 °F
Feels Like 76 °F
N
0.0
Wind Variable Wind from WSW
Gusts 0.0 mph

Today
High -- | Low -- °F
--% Chance of Precip.
Yesterday
High -- | Low -- °F
Precip. -- in
6:33 AM 7:30 PM
First Quarter, 56% visible
Pressure 29.99 in
Visibility 10.0 miles
Clouds Clear
Heat Index 76 °F
Dew Point 70 °F
Humidity 82%
Rainfall 0.00 in
Snow Depth Not available.
UV 0 out of 12
Pollen 8.70 out of 12
Air Quality Not available.
Flu Activity Not available.
METAR KFAM 022335Z AUTO 32003KT 10SM CLR 24/19 A2999 RMK AO1

More Conditions Fewer Conditions

Pressure 29.99 in
Visibility 10.0 miles
Clouds Clear
Heat Index 76 °F
Dew Point 70 °F
Humidity 82%
Rainfall 0.00 in
Snow Depth Not available.
UV 0 out of 12
Pollen 8.70 out of 12
Air Quality Not available.
Flu Activity Not available.
METAR KFAM 022335Z AUTO 32003KT 10SM CLR 24/19 A2999 RMK AO1

More Conditions Fewer Conditions

10-Day Weather Forecast

Almanac

Astronomy

Sep. 02, 2014 Rise Set
Actual Time 6:33 AM CDT 7:30 PM CDT
Civil Twilight 6:07 AM CDT 7:56 PM CDT
Nautical Twilight 5:35 AM CDT 8:28 PM CDT
Astronomical Twilight 5:02 AM CDT 9:00 PM CDT
Moon 2:09 PM CDT No Moon Set
Length of Visible Light 13h 49m
Length of Day
12h 56m
Tomorrow will be 2m 18s shorter.
First Quarter, 56% of the Moon is Illuminated
Today
First Quarter
Sep 8
Full
Sep 15
Last Quarter
Sep 24
New
Oct 1
First Quarter

Today's Extremes

State Highs State Lows

Community

WunderPhotos

Upload Photos

1,749,799 photos uploaded!

Nearby

Snow Depth

Station Depth Elevation
No new snow has been reported.

Earthquake Activity

City Distance Mag. Time & Date
Tiptonville, Tennessee 95 miles 2.9 11:19 PM CDT
2014-08-31
Minimum magnitude displayed is 2.5.

Coastal Water Temperatures

Place Temperature
No Stations Reporting

Nearby Weather Stations